sensor_id;sensor_type;location;lat;lon;timestamp;P1;durP1;ratioP1;P2;durP2;ratioP2
11042;SDS011;5574;48.786;10.120;2023-03-21T00:01:54;2.40;;;1.90;;
11042;SDS011;5574;48.786;10.120;2023-03-21T00:04:23;2.33;;;2.13;;
11042;SDS011;5574;48.786;10.120;2023-03-21T00:06:51;3.23;;;2.20;;
11042;SDS011;5574;48.786;10.120;2023-03-21T00:09:18;2.63;;;2.20;;
11042;SDS011;5574;48.786;10.120;2023-03-21T00:11:46;2.63;;;2.00;;
11042;SDS011;5574;48.786;10.120;2023-03-21T00:14:13;2.50;;;2.30;;
11042;SDS011;5574;48.786;10.120;2023-03-21T00:16:44;2.77;;;2.20;;
11042;SDS011;5574;48.786;10.120;2023-03-21T00:19:14;5.07;;;2.40;;
11042;SDS011;5574;48.786;10.120;2023-03-21T00:21:42;3.23;;;1.90;;
11042;SDS011;5574;48.786;10.120;2023-03-21T00:24:10;2.20;;;2.00;;
11042;SDS011;5574;48.786;10.120;2023-03-21T00:26:37;2.43;;;1.80;;
11042;SDS011;5574;48.786;10.120;2023-03-21T00:29:03;3.00;;;2.00;;
11042;SDS011;5574;48.786;10.120;2023-03-21T00:31:30;2.00;;;1.80;;
11042;SDS011;5574;48.786;10.120;2023-03-21T00:33:57;2.80;;;1.77;;
11042;SDS011;5574;48.786;10.120;2023-03-21T00:36:23;4.57;;;1.77;;
11042;SDS011;5574;48.786;10.120;2023-03-21T00:38:52;2.07;;;1.70;;
11042;SDS011;5574;48.786;10.120;2023-03-21T00:41:19;2.53;;;1.77;;
11042;SDS011;5574;48.786;10.120;2023-03-21T00:43:45;2.60;;;1.70;;
11042;SDS011;5574;48.786;10.120;2023-03-21T00:46:12;2.20;;;1.77;;
11042;SDS011;5574;48.786;10.120;2023-03-21T00:48:39;5.00;;;1.90;;
11042;SDS011;5574;48.786;10.120;2023-03-21T00:51:10;3.93;;;2.10;;
11042;SDS011;5574;48.786;10.120;2023-03-21T00:53:39;1.93;;;1.73;;
11042;SDS011;5574;48.786;10.120;2023-03-21T00:56:07;2.07;;;1.83;;
11042;SDS011;5574;48.786;10.120;2023-03-21T00:58:34;1.90;;;1.80;;
11042;SDS011;5574;48.786;10.120;2023-03-21T01:01:01;1.70;;;1.57;;
11042;SDS011;5574;48.786;10.120;2023-03-21T01:03:30;1.70;;;1.60;;
11042;SDS011;5574;48.786;10.120;2023-03-21T01:06:06;3.17;;;1.90;;
11042;SDS011;5574;48.786;10.120;2023-03-21T01:08:38;3.43;;;2.00;;
11042;SDS011;5574;48.786;10.120;2023-03-21T01:11:06;3.30;;;1.80;;
11042;SDS011;5574;48.786;10.120;2023-03-21T01:13:36;1.60;;;1.50;;
11042;SDS011;5574;48.786;10.120;2023-03-21T01:16:03;2.33;;;1.80;;
11042;SDS011;5574;48.786;10.120;2023-03-21T01:18:31;1.83;;;1.73;;
11042;SDS011;5574;48.786;10.120;2023-03-21T01:20:59;3.17;;;1.77;;
11042;SDS011;5574;48.786;10.120;2023-03-21T01:23:27;3.33;;;1.90;;
11042;SDS011;5574;48.786;10.120;2023-03-21T01:25:54;1.60;;;1.50;;
11042;SDS011;5574;48.786;10.120;2023-03-21T01:28:24;3.50;;;1.90;;
11042;SDS011;5574;48.786;10.120;2023-03-21T01:30:52;1.83;;;1.73;;
11042;SDS011;5574;48.786;10.120;2023-03-21T01:33:20;1.90;;;1.80;;
11042;SDS011;5574;48.786;10.120;2023-03-21T01:35:47;2.50;;;1.87;;
11042;SDS011;5574;48.786;10.120;2023-03-21T01:38:14;2.23;;;1.87;;
11042;SDS011;5574;48.786;10.120;2023-03-21T01:40:42;2.77;;;2.10;;
11042;SDS011;5574;48.786;10.120;2023-03-21T01:43:15;2.37;;;2.17;;
11042;SDS011;5574;48.786;10.120;2023-03-21T01:49:03;3.27;;;2.30;;
11042;SDS011;5574;48.786;10.120;2023-03-21T01:51:37;4.07;;;2.43;;
11042;SDS011;5574;48.786;10.120;2023-03-21T01:54:07;4.03;;;2.80;;
11042;SDS011;5574;48.786;10.120;2023-03-21T01:56:38;5.53;;;2.50;;
11042;SDS011;5574;48.786;10.120;2023-03-21T01:59:11;4.23;;;2.67;;
11042;SDS011;5574;48.786;10.120;2023-03-21T02:01:43;3.47;;;2.70;;
11042;SDS011;5574;48.786;10.120;2023-03-21T02:04:10;4.83;;;2.80;;
11042;SDS011;5574;48.786;10.120;2023-03-21T02:06:39;4.77;;;3.20;;
11042;SDS011;5574;48.786;10.120;2023-03-21T02:09:12;2.77;;;2.43;;
11042;SDS011;5574;48.786;10.120;2023-03-21T02:11:41;2.60;;;2.17;;
11042;SDS011;5574;48.786;10.120;2023-03-21T02:14:11;3.93;;;2.60;;
11042;SDS011;5574;48.786;10.120;2023-03-21T02:16:46;5.17;;;2.60;;
11042;SDS011;5574;48.786;10.120;2023-03-21T02:19:30;3.03;;;2.73;;
11042;SDS011;5574;48.786;10.120;2023-03-21T02:22:18;4.30;;;2.30;;
11042;SDS011;5574;48.786;10.120;2023-03-21T02:25:00;4.17;;;2.30;;
11042;SDS011;5574;48.786;10.120;2023-03-21T02:28:02;3.60;;;2.57;;
11042;SDS011;5574;48.786;10.120;2023-03-21T02:30:37;3.27;;;2.27;;
11042;SDS011;5574;48.786;10.120;2023-03-21T02:33:32;2.60;;;2.37;;
11042;SDS011;5574;48.786;10.120;2023-03-21T02:36:27;3.60;;;2.63;;
11042;SDS011;5574;48.786;10.120;2023-03-21T02:39:06;4.10;;;2.50;;
11042;SDS011;5574;48.786;10.120;2023-03-21T02:41:39;3.57;;;2.70;;
11042;SDS011;5574;48.786;10.120;2023-03-21T02:44:14;3.33;;;2.63;;
11042;SDS011;5574;48.786;10.120;2023-03-21T02:46:45;4.53;;;2.67;;
11042;SDS011;5574;48.786;10.120;2023-03-21T02:49:18;4.37;;;2.70;;
11042;SDS011;5574;48.786;10.120;2023-03-21T02:51:49;4.33;;;2.77;;
11042;SDS011;5574;48.786;10.120;2023-03-21T02:54:18;3.10;;;2.43;;
11042;SDS011;5574;48.786;10.120;2023-03-21T02:56:48;4.83;;;2.50;;
11042;SDS011;5574;48.786;10.120;2023-03-21T02:59:16;3.57;;;2.20;;
11042;SDS011;5574;48.786;10.120;2023-03-21T03:01:46;3.17;;;2.30;;
11042;SDS011;5574;48.786;10.120;2023-03-21T03:04:19;2.97;;;2.37;;
11042;SDS011;5574;48.786;10.120;2023-03-21T03:06:51;5.77;;;3.27;;
11042;SDS011;5574;48.786;10.120;2023-03-21T03:09:40;3.37;;;2.70;;
11042;SDS011;5574;48.786;10.120;2023-03-21T03:12:20;3.20;;;2.63;;
11042;SDS011;5574;48.786;10.120;2023-03-21T03:14:54;6.80;;;2.87;;
11042;SDS011;5574;48.786;10.120;2023-03-21T03:17:27;3.93;;;2.33;;
11042;SDS011;5574;48.786;10.120;2023-03-21T03:20:08;3.80;;;2.37;;
11042;SDS011;5574;48.786;10.120;2023-03-21T03:22:45;4.33;;;2.60;;
11042;SDS011;5574;48.786;10.120;2023-03-21T03:25:19;3.97;;;2.40;;
11042;SDS011;5574;48.786;10.120;2023-03-21T03:27:49;2.63;;;2.33;;
11042;SDS011;5574;48.786;10.120;2023-03-21T03:30:18;2.60;;;2.10;;
11042;SDS011;5574;48.786;10.120;2023-03-21T03:32:45;3.53;;;2.00;;
11042;SDS011;5574;48.786;10.120;2023-03-21T03:35:16;2.57;;;1.97;;
11042;SDS011;5574;48.786;10.120;2023-03-21T03:37:46;3.70;;;2.00;;
11042;SDS011;5574;48.786;10.120;2023-03-21T03:40:17;2.37;;;1.70;;
11042;SDS011;5574;48.786;10.120;2023-03-21T03:42:48;1.83;;;1.70;;
11042;SDS011;5574;48.786;10.120;2023-03-21T03:45:18;4.40;;;1.70;;
11042;SDS011;5574;48.786;10.120;2023-03-21T03:47:49;2.20;;;1.93;;
11042;SDS011;5574;48.786;10.120;2023-03-21T03:50:20;3.33;;;2.00;;
11042;SDS011;5574;48.786;10.120;2023-03-21T03:52:55;2.17;;;1.90;;
11042;SDS011;5574;48.786;10.120;2023-03-21T03:55:33;1.80;;;1.70;;
11042;SDS011;5574;48.786;10.120;2023-03-21T03:58:00;2.07;;;1.83;;
11042;SDS011;5574;48.786;10.120;2023-03-21T04:00:30;3.10;;;1.90;;
11042;SDS011;5574;48.786;10.120;2023-03-21T04:02:57;2.60;;;1.90;;
11042;SDS011;5574;48.786;10.120;2023-03-21T04:05:24;2.10;;;1.90;;
11042;SDS011;5574;48.786;10.120;2023-03-21T04:07:52;2.53;;;2.00;;
11042;SDS011;5574;48.786;10.120;2023-03-21T04:10:19;2.20;;;1.90;;
11042;SDS011;5574;48.786;10.120;2023-03-21T04:12:48;2.80;;;1.90;;
11042;SDS011;5574;48.786;10.120;2023-03-21T04:15:15;2.13;;;1.57;;
11042;SDS011;5574;48.786;10.120;2023-03-21T04:17:43;1.80;;;1.70;;
11042;SDS011;5574;48.786;10.120;2023-03-21T04:20:10;2.10;;;1.90;;
11042;SDS011;5574;48.786;10.120;2023-03-21T04:22:37;2.27;;;2.10;;
11042;SDS011;5574;48.786;10.120;2023-03-21T04:25:05;3.53;;;1.83;;
11042;SDS011;5574;48.786;10.120;2023-03-21T04:27:33;3.80;;;1.83;;
11042;SDS011;5574;48.786;10.120;2023-03-21T04:30:01;4.40;;;1.90;;
11042;SDS011;5574;48.786;10.120;2023-03-21T04:32:27;2.47;;;2.00;;
11042;SDS011;5574;48.786;10.120;2023-03-21T04:34:58;2.20;;;2.10;;
11042;SDS011;5574;48.786;10.120;2023-03-21T04:37:25;3.23;;;2.00;;
11042;SDS011;5574;48.786;10.120;2023-03-21T04:39:52;2.80;;;2.40;;
11042;SDS011;5574;48.786;10.120;2023-03-21T04:42:19;3.70;;;2.00;;
11042;SDS011;5574;48.786;10.120;2023-03-21T04:44:45;3.33;;;2.20;;
11042;SDS011;5574;48.786;10.120;2023-03-21T04:47:14;3.77;;;2.63;;
11042;SDS011;5574;48.786;10.120;2023-03-21T04:49:44;5.63;;;2.13;;
11042;SDS011;5574;48.786;10.120;2023-03-21T04:52:12;3.83;;;2.10;;
11042;SDS011;5574;48.786;10.120;2023-03-21T04:54:38;3.40;;;2.10;;
11042;SDS011;5574;48.786;10.120;2023-03-21T04:57:05;3.03;;;2.00;;
11042;SDS011;5574;48.786;10.120;2023-03-21T04:59:32;5.03;;;2.60;;
11042;SDS011;5574;48.786;10.120;2023-03-21T05:01:59;4.43;;;2.80;;
11042;SDS011;5574;48.786;10.120;2023-03-21T05:04:27;3.93;;;2.60;;
11042;SDS011;5574;48.786;10.120;2023-03-21T05:06:55;3.97;;;2.60;;
11042;SDS011;5574;48.786;10.120;2023-03-21T05:09:22;2.63;;;2.43;;
11042;SDS011;5574;48.786;10.120;2023-03-21T05:11:49;4.67;;;3.27;;
11042;SDS011;5574;48.786;10.120;2023-03-21T05:14:17;4.37;;;2.40;;
11042;SDS011;5574;48.786;10.120;2023-03-21T05:16:45;5.40;;;2.43;;
11042;SDS011;5574;48.786;10.120;2023-03-21T05:19:17;2.60;;;2.30;;
11042;SDS011;5574;48.786;10.120;2023-03-21T05:21:46;7.97;;;2.40;;
11042;SDS011;5574;48.786;10.120;2023-03-21T05:24:13;3.27;;;2.13;;
11042;SDS011;5574;48.786;10.120;2023-03-21T05:26:41;2.93;;;2.30;;
11042;SDS011;5574;48.786;10.120;2023-03-21T05:29:14;3.13;;;2.20;;
11042;SDS011;5574;48.786;10.120;2023-03-21T05:31:41;4.20;;;2.00;;
11042;SDS011;5574;48.786;10.120;2023-03-21T05:34:08;2.47;;;2.00;;
11042;SDS011;5574;48.786;10.120;2023-03-21T05:36:35;3.83;;;2.07;;
11042;SDS011;5574;48.786;10.120;2023-03-21T05:39:04;2.47;;;1.87;;
11042;SDS011;5574;48.786;10.120;2023-03-21T05:41:32;2.00;;;1.90;;
11042;SDS011;5574;48.786;10.120;2023-03-21T05:43:59;4.93;;;2.00;;
11042;SDS011;5574;48.786;10.120;2023-03-21T05:46:26;2.97;;;2.00;;
11042;SDS011;5574;48.786;10.120;2023-03-21T05:48:53;3.90;;;2.50;;
11042;SDS011;5574;48.786;10.120;2023-03-21T05:51:20;3.13;;;2.70;;
11042;SDS011;5574;48.786;10.120;2023-03-21T05:53:47;3.30;;;2.70;;
11042;SDS011;5574;48.786;10.120;2023-03-21T05:56:15;3.53;;;2.60;;
11042;SDS011;5574;48.786;10.120;2023-03-21T05:58:41;3.33;;;2.60;;
11042;SDS011;5574;48.786;10.120;2023-03-21T06:01:08;5.40;;;2.87;;
11042;SDS011;5574;48.786;10.120;2023-03-21T06:03:35;4.10;;;2.90;;
11042;SDS011;5574;48.786;10.120;2023-03-21T06:06:02;5.37;;;2.90;;
11042;SDS011;5574;48.786;10.120;2023-03-21T06:08:29;4.27;;;2.83;;
11042;SDS011;5574;48.786;10.120;2023-03-21T06:10:56;3.03;;;2.73;;
11042;SDS011;5574;48.786;10.120;2023-03-21T06:13:24;4.10;;;2.83;;
11042;SDS011;5574;48.786;10.120;2023-03-21T06:15:51;3.40;;;2.63;;
11042;SDS011;5574;48.786;10.120;2023-03-21T06:18:18;3.27;;;2.83;;
11042;SDS011;5574;48.786;10.120;2023-03-21T06:20:44;5.20;;;3.20;;
11042;SDS011;5574;48.786;10.120;2023-03-21T06:23:11;3.57;;;3.20;;
11042;SDS011;5574;48.786;10.120;2023-03-21T06:25:38;5.27;;;3.70;;
11042;SDS011;5574;48.786;10.120;2023-03-21T06:28:04;6.13;;;4.10;;
11042;SDS011;5574;48.786;10.120;2023-03-21T06:30:32;9.70;;;3.87;;
11042;SDS011;5574;48.786;10.120;2023-03-21T06:32:59;6.90;;;3.80;;
11042;SDS011;5574;48.786;10.120;2023-03-21T06:35:26;5.80;;;4.10;;
11042;SDS011;5574;48.786;10.120;2023-03-21T06:37:53;7.77;;;4.50;;
11042;SDS011;5574;48.786;10.120;2023-03-21T06:40:22;7.53;;;4.20;;
11042;SDS011;5574;48.786;10.120;2023-03-21T06:42:49;6.57;;;4.20;;
11042;SDS011;5574;48.786;10.120;2023-03-21T06:45:15;6.90;;;4.20;;
11042;SDS011;5574;48.786;10.120;2023-03-21T06:47:43;8.53;;;4.20;;
11042;SDS011;5574;48.786;10.120;2023-03-21T06:50:10;4.20;;;3.73;;
11042;SDS011;5574;48.786;10.120;2023-03-21T06:52:37;8.00;;;3.93;;
11042;SDS011;5574;48.786;10.120;2023-03-21T06:55:04;6.97;;;3.67;;
11042;SDS011;5574;48.786;10.120;2023-03-21T06:57:31;6.93;;;4.50;;
11042;SDS011;5574;48.786;10.120;2023-03-21T06:59:58;4.00;;;3.40;;
11042;SDS011;5574;48.786;10.120;2023-03-21T07:02:24;5.93;;;3.80;;
11042;SDS011;5574;48.786;10.120;2023-03-21T07:04:52;6.73;;;4.23;;
11042;SDS011;5574;48.786;10.120;2023-03-21T07:07:22;5.17;;;3.80;;
11042;SDS011;5574;48.786;10.120;2023-03-21T07:09:50;8.00;;;4.30;;
11042;SDS011;5574;48.786;10.120;2023-03-21T07:12:16;8.50;;;4.17;;
11042;SDS011;5574;48.786;10.120;2023-03-21T07:14:43;7.93;;;5.20;;
11042;SDS011;5574;48.786;10.120;2023-03-21T07:17:10;10.67;;;5.33;;
11042;SDS011;5574;48.786;10.120;2023-03-21T07:19:36;7.80;;;4.97;;
11042;SDS011;5574;48.786;10.120;2023-03-21T07:22:04;6.03;;;4.63;;
11042;SDS011;5574;48.786;10.120;2023-03-21T07:24:31;7.63;;;5.23;;
11042;SDS011;5574;48.786;10.120;2023-03-21T07:26:58;11.27;;;4.60;;
11042;SDS011;5574;48.786;10.120;2023-03-21T07:29:24;8.80;;;4.47;;
11042;SDS011;5574;48.786;10.120;2023-03-21T07:31:51;7.10;;;4.33;;
11042;SDS011;5574;48.786;10.120;2023-03-21T07:34:18;10.67;;;5.30;;
11042;SDS011;5574;48.786;10.120;2023-03-21T07:36:44;10.77;;;4.60;;
11042;SDS011;5574;48.786;10.120;2023-03-21T07:39:12;5.50;;;4.37;;
11042;SDS011;5574;48.786;10.120;2023-03-21T07:41:39;10.03;;;4.73;;
11042;SDS011;5574;48.786;10.120;2023-03-21T07:44:06;7.20;;;4.70;;
11042;SDS011;5574;48.786;10.120;2023-03-21T07:46:32;6.93;;;5.10;;
11042;SDS011;5574;48.786;10.120;2023-03-21T07:48:59;7.90;;;4.40;;
11042;SDS011;5574;48.786;10.120;2023-03-21T07:51:26;9.33;;;5.20;;
11042;SDS011;5574;48.786;10.120;2023-03-21T07:53:53;8.70;;;4.67;;
11042;SDS011;5574;48.786;10.120;2023-03-21T07:56:21;6.27;;;4.30;;
11042;SDS011;5574;48.786;10.120;2023-03-21T07:58:47;9.00;;;4.80;;
11042;SDS011;5574;48.786;10.120;2023-03-21T08:01:14;6.10;;;4.27;;
11042;SDS011;5574;48.786;10.120;2023-03-21T08:03:41;6.33;;;4.20;;
11042;SDS011;5574;48.786;10.120;2023-03-21T08:06:08;7.43;;;5.20;;
11042;SDS011;5574;48.786;10.120;2023-03-21T08:08:35;9.87;;;4.30;;
11042;SDS011;5574;48.786;10.120;2023-03-21T08:11:02;7.13;;;3.77;;
11042;SDS011;5574;48.786;10.120;2023-03-21T08:13:31;12.67;;;4.37;;
11042;SDS011;5574;48.786;10.120;2023-03-21T08:15:57;8.80;;;3.70;;
11042;SDS011;5574;48.786;10.120;2023-03-21T08:18:24;4.00;;;2.67;;
11042;SDS011;5574;48.786;10.120;2023-03-21T08:20:51;3.47;;;2.50;;
11042;SDS011;5574;48.786;10.120;2023-03-21T08:23:18;4.43;;;2.03;;
11042;SDS011;5574;48.786;10.120;2023-03-21T08:25:49;8.77;;;2.60;;
11042;SDS011;5574;48.786;10.120;2023-03-21T08:28:17;3.73;;;2.40;;
11042;SDS011;5574;48.786;10.120;2023-03-21T08:30:45;4.80;;;2.77;;
11042;SDS011;5574;48.786;10.120;2023-03-21T08:33:12;5.80;;;2.87;;
11042;SDS011;5574;48.786;10.120;2023-03-21T08:35:39;4.00;;;2.60;;
11042;SDS011;5574;48.786;10.120;2023-03-21T08:38:05;4.00;;;2.90;;
11042;SDS011;5574;48.786;10.120;2023-03-21T08:40:33;4.83;;;2.70;;
11042;SDS011;5574;48.786;10.120;2023-03-21T08:43:00;4.73;;;2.60;;
11042;SDS011;5574;48.786;10.120;2023-03-21T08:45:27;3.07;;;2.50;;
11042;SDS011;5574;48.786;10.120;2023-03-21T08:47:55;4.23;;;2.07;;
11042;SDS011;5574;48.786;10.120;2023-03-21T08:50:23;2.30;;;2.10;;
11042;SDS011;5574;48.786;10.120;2023-03-21T08:52:55;2.00;;;1.80;;
11042;SDS011;5574;48.786;10.120;2023-03-21T08:55:22;6.20;;;2.57;;
11042;SDS011;5574;48.786;10.120;2023-03-21T08:57:49;3.70;;;2.40;;
11042;SDS011;5574;48.786;10.120;2023-03-21T09:00:16;4.23;;;2.00;;
11042;SDS011;5574;48.786;10.120;2023-03-21T09:02:45;3.03;;;2.13;;
11042;SDS011;5574;48.786;10.120;2023-03-21T09:05:14;2.60;;;1.93;;
11042;SDS011;5574;48.786;10.120;2023-03-21T09:07:41;3.43;;;2.33;;
11042;SDS011;5574;48.786;10.120;2023-03-21T09:10:10;2.93;;;2.07;;
11042;SDS011;5574;48.786;10.120;2023-03-21T09:12:38;2.60;;;2.30;;
11042;SDS011;5574;48.786;10.120;2023-03-21T09:15:06;2.67;;;2.17;;
11042;SDS011;5574;48.786;10.120;2023-03-21T09:17:34;2.63;;;1.90;;
11042;SDS011;5574;48.786;10.120;2023-03-21T09:20:03;2.30;;;1.93;;
11042;SDS011;5574;48.786;10.120;2023-03-21T09:22:36;7.67;;;2.20;;
11042;SDS011;5574;48.786;10.120;2023-03-21T09:25:03;2.70;;;1.97;;
11042;SDS011;5574;48.786;10.120;2023-03-21T09:27:32;6.80;;;2.30;;
11042;SDS011;5574;48.786;10.120;2023-03-21T09:29:59;7.20;;;2.17;;
11042;SDS011;5574;48.786;10.120;2023-03-21T09:32:26;2.00;;;1.90;;
11042;SDS011;5574;48.786;10.120;2023-03-21T09:34:53;2.13;;;2.03;;
11042;SDS011;5574;48.786;10.120;2023-03-21T09:37:21;2.30;;;1.67;;
11042;SDS011;5574;48.786;10.120;2023-03-21T09:39:50;2.03;;;1.80;;
11042;SDS011;5574;48.786;10.120;2023-03-21T09:42:19;2.00;;;1.80;;
11042;SDS011;5574;48.786;10.120;2023-03-21T09:44:58;2.17;;;2.00;;
11042;SDS011;5574;48.786;10.120;2023-03-21T09:47:34;2.17;;;1.97;;
11042;SDS011;5574;48.786;10.120;2023-03-21T09:50:13;1.90;;;1.80;;
11042;SDS011;5574;48.786;10.120;2023-03-21T09:52:45;1.90;;;1.73;;
11042;SDS011;5574;48.786;10.120;2023-03-21T09:55:17;3.20;;;1.70;;
11042;SDS011;5574;48.786;10.120;2023-03-21T09:57:46;1.93;;;1.83;;
11042;SDS011;5574;48.786;10.120;2023-03-21T10:00:16;2.10;;;1.90;;
11042;SDS011;5574;48.786;10.120;2023-03-21T10:02:50;2.10;;;1.83;;
11042;SDS011;5574;48.786;10.120;2023-03-21T10:05:24;2.07;;;1.87;;
11042;SDS011;5574;48.786;10.120;2023-03-21T10:07:53;3.07;;;1.70;;
11042;SDS011;5574;48.786;10.120;2023-03-21T10:10:26;2.43;;;1.80;;
11042;SDS011;5574;48.786;10.120;2023-03-21T10:12:57;1.80;;;1.70;;
11042;SDS011;5574;48.786;10.120;2023-03-21T10:15:24;2.30;;;1.97;;
11042;SDS011;5574;48.786;10.120;2023-03-21T10:17:53;2.20;;;1.73;;
11042;SDS011;5574;48.786;10.120;2023-03-21T10:20:23;2.50;;;1.77;;
11042;SDS011;5574;48.786;10.120;2023-03-21T10:22:51;3.07;;;1.90;;
11042;SDS011;5574;48.786;10.120;2023-03-21T10:25:20;2.50;;;2.10;;
11042;SDS011;5574;48.786;10.120;2023-03-21T10:27:52;1.70;;;1.60;;
11042;SDS011;5574;48.786;10.120;2023-03-21T10:30:27;2.20;;;2.00;;
11042;SDS011;5574;48.786;10.120;2023-03-21T10:33:00;2.83;;;1.67;;
11042;SDS011;5574;48.786;10.120;2023-03-21T10:35:33;1.57;;;1.47;;
11042;SDS011;5574;48.786;10.120;2023-03-21T10:38:02;1.77;;;1.57;;
11042;SDS011;5574;48.786;10.120;2023-03-21T10:40:30;2.30;;;2.00;;
11042;SDS011;5574;48.786;10.120;2023-03-21T10:43:14;1.80;;;1.70;;
11042;SDS011;5574;48.786;10.120;2023-03-21T10:45:44;1.87;;;1.73;;
11042;SDS011;5574;48.786;10.120;2023-03-21T10:48:12;2.10;;;1.90;;
11042;SDS011;5574;48.786;10.120;2023-03-21T10:50:39;2.80;;;1.80;;
11042;SDS011;5574;48.786;10.120;2023-03-21T10:53:10;2.43;;;1.80;;
11042;SDS011;5574;48.786;10.120;2023-03-21T10:55:45;1.97;;;1.70;;
11042;SDS011;5574;48.786;10.120;2023-03-21T10:58:18;2.77;;;1.97;;
11042;SDS011;5574;48.786;10.120;2023-03-21T11:00:53;2.03;;;1.83;;
11042;SDS011;5574;48.786;10.120;2023-03-21T11:03:22;2.65;;;2.33;;
11042;SDS011;5574;48.786;10.120;2023-03-21T11:05:54;1.70;;;1.60;;
11042;SDS011;5574;48.786;10.120;2023-03-21T11:08:21;3.38;;;2.17;;
11042;SDS011;5574;48.786;10.120;2023-03-21T11:10:51;2.00;;;1.80;;
11042;SDS011;5574;48.786;10.120;2023-03-21T11:13:23;2.15;;;1.80;;
11042;SDS011;5574;48.786;10.120;2023-03-21T11:15:52;1.70;;;1.60;;
11042;SDS011;5574;48.786;10.120;2023-03-21T11:18:21;1.70;;;1.60;;
11042;SDS011;5574;48.786;10.120;2023-03-21T11:20:49;2.00;;;1.80;;
11042;SDS011;5574;48.786;10.120;2023-03-21T11:23:18;2.05;;;1.90;;
11042;SDS011;5574;48.786;10.120;2023-03-21T11:25:46;2.78;;;2.45;;
11042;SDS011;5574;48.786;10.120;2023-03-21T11:28:15;3.55;;;1.90;;
11042;SDS011;5574;48.786;10.120;2023-03-21T11:30:54;3.22;;;2.55;;
11042;SDS011;5574;48.786;10.120;2023-03-21T11:33:24;2.67;;;2.40;;
11042;SDS011;5574;48.786;10.120;2023-03-21T11:35:58;3.37;;;2.40;;
11042;SDS011;5574;48.786;10.120;2023-03-21T11:38:26;2.50;;;2.30;;
11042;SDS011;5574;48.786;10.120;2023-03-21T11:40:57;2.38;;;2.00;;
11042;SDS011;5574;48.786;10.120;2023-03-21T11:43:25;2.78;;;2.42;;
11042;SDS011;5574;48.786;10.120;2023-03-21T11:45:59;3.38;;;2.40;;
11042;SDS011;5574;48.786;10.120;2023-03-21T11:48:30;3.20;;;2.67;;
11042;SDS011;5574;48.786;10.120;2023-03-21T11:51:01;3.33;;;2.80;;
11042;SDS011;5574;48.786;10.120;2023-03-21T11:53:32;4.53;;;3.10;;
11042;SDS011;5574;48.786;10.120;2023-03-21T11:58:57;3.03;;;2.72;;
11042;SDS011;5574;48.786;10.120;2023-03-21T12:01:35;3.72;;;2.90;;
11042;SDS011;5574;48.786;10.120;2023-03-21T12:04:20;4.00;;;2.70;;
11042;SDS011;5574;48.786;10.120;2023-03-21T12:10:16;3.17;;;2.80;;
11042;SDS011;5574;48.786;10.120;2023-03-21T12:12:59;3.63;;;2.75;;
11042;SDS011;5574;48.786;10.120;2023-03-21T12:15:35;2.80;;;2.60;;
11042;SDS011;5574;48.786;10.120;2023-03-21T12:18:13;2.53;;;2.30;;
11042;SDS011;5574;48.786;10.120;2023-03-21T12:20:48;2.67;;;2.47;;
11042;SDS011;5574;48.786;10.120;2023-03-21T12:23:41;13.75;;;3.70;;
11042;SDS011;5574;48.786;10.120;2023-03-21T12:26:18;3.03;;;2.72;;
11042;SDS011;5574;48.786;10.120;2023-03-21T12:28:55;2.70;;;2.38;;
11042;SDS011;5574;48.786;10.120;2023-03-21T12:31:32;2.90;;;2.60;;
11042;SDS011;5574;48.786;10.120;2023-03-21T12:34:13;3.35;;;2.40;;
11042;SDS011;5574;48.786;10.120;2023-03-21T12:36:56;2.53;;;2.10;;
11042;SDS011;5574;48.786;10.120;2023-03-21T12:39:31;3.58;;;2.78;;
11042;SDS011;5574;48.786;10.120;2023-03-21T12:42:09;2.72;;;2.53;;
11042;SDS011;5574;48.786;10.120;2023-03-21T12:44:53;3.70;;;2.47;;
11042;SDS011;5574;48.786;10.120;2023-03-21T12:47:26;2.80;;;2.35;;
11042;SDS011;5574;48.786;10.120;2023-03-21T12:49:59;2.50;;;2.30;;
11042;SDS011;5574;48.786;10.120;2023-03-21T12:52:30;6.15;;;2.53;;
11042;SDS011;5574;48.786;10.120;2023-03-21T12:54:59;2.65;;;2.03;;
11042;SDS011;5574;48.786;10.120;2023-03-21T12:57:31;2.40;;;2.20;;
11042;SDS011;5574;48.786;10.120;2023-03-21T13:00:02;2.53;;;2.05;;
11042;SDS011;5574;48.786;10.120;2023-03-21T13:02:37;2.30;;;1.80;;
11042;SDS011;5574;48.786;10.120;2023-03-21T13:05:13;2.38;;;2.17;;
11042;SDS011;5574;48.786;10.120;2023-03-21T13:07:44;2.78;;;2.00;;
11042;SDS011;5574;48.786;10.120;2023-03-21T13:10:16;4.50;;;2.08;;
11042;SDS011;5574;48.786;10.120;2023-03-21T13:12:47;6.07;;;2.25;;
11042;SDS011;5574;48.786;10.120;2023-03-21T13:15:30;2.28;;;1.88;;
11042;SDS011;5574;48.786;10.120;2023-03-21T13:18:11;2.20;;;1.98;;
11042;SDS011;5574;48.786;10.120;2023-03-21T13:20:46;3.05;;;2.05;;
11042;SDS011;5574;48.786;10.120;2023-03-21T13:23:14;3.00;;;2.17;;
11042;SDS011;5574;48.786;10.120;2023-03-21T13:25:44;3.65;;;2.08;;
11042;SDS011;5574;48.786;10.120;2023-03-21T13:28:17;6.10;;;2.45;;
11042;SDS011;5574;48.786;10.120;2023-03-21T13:30:46;2.78;;;2.50;;
11042;SDS011;5574;48.786;10.120;2023-03-21T13:33:14;4.10;;;2.40;;
11042;SDS011;5574;48.786;10.120;2023-03-21T13:35:52;2.80;;;2.28;;
11042;SDS011;5574;48.786;10.120;2023-03-21T13:38:23;2.20;;;2.08;;
11042;SDS011;5574;48.786;10.120;2023-03-21T13:40:55;2.72;;;2.25;;
11042;SDS011;5574;48.786;10.120;2023-03-21T13:43:31;3.28;;;2.35;;
11042;SDS011;5574;48.786;10.120;2023-03-21T13:46:04;4.18;;;2.38;;
11042;SDS011;5574;48.786;10.120;2023-03-21T13:48:39;5.00;;;2.33;;
11042;SDS011;5574;48.786;10.120;2023-03-21T13:51:09;4.10;;;2.40;;
11042;SDS011;5574;48.786;10.120;2023-03-21T13:53:37;2.10;;;1.92;;
11042;SDS011;5574;48.786;10.120;2023-03-21T13:56:22;2.97;;;2.20;;
11042;SDS011;5574;48.786;10.120;2023-03-21T13:58:53;2.92;;;2.72;;
11042;SDS011;5574;48.786;10.120;2023-03-21T14:01:25;5.25;;;2.35;;
11042;SDS011;5574;48.786;10.120;2023-03-21T14:03:57;3.45;;;2.60;;
11042;SDS011;5574;48.786;10.120;2023-03-21T14:06:31;2.60;;;2.40;;
11042;SDS011;5574;48.786;10.120;2023-03-21T14:09:01;3.25;;;2.72;;
11042;SDS011;5574;48.786;10.120;2023-03-21T14:11:28;3.35;;;3.05;;
11042;SDS011;5574;48.786;10.120;2023-03-21T14:13:58;4.30;;;2.65;;
11042;SDS011;5574;48.786;10.120;2023-03-21T14:16:25;3.95;;;2.70;;
11042;SDS011;5574;48.786;10.120;2023-03-21T14:18:55;5.75;;;2.72;;
11042;SDS011;5574;48.786;10.120;2023-03-21T14:21:25;4.38;;;2.75;;
11042;SDS011;5574;48.786;10.120;2023-03-21T14:23:56;3.85;;;2.55;;
11042;SDS011;5574;48.786;10.120;2023-03-21T14:26:25;4.63;;;3.30;;
11042;SDS011;5574;48.786;10.120;2023-03-21T14:28:54;3.25;;;2.63;;
11042;SDS011;5574;48.786;10.120;2023-03-21T14:31:21;4.65;;;3.03;;
11042;SDS011;5574;48.786;10.120;2023-03-21T14:33:49;4.43;;;3.30;;
11042;SDS011;5574;48.786;10.120;2023-03-21T14:36:19;2.92;;;2.65;;
11042;SDS011;5574;48.786;10.120;2023-03-21T14:38:53;4.97;;;3.45;;
11042;SDS011;5574;48.786;10.120;2023-03-21T14:41:23;2.95;;;2.75;;
11042;SDS011;5574;48.786;10.120;2023-03-21T14:44:01;2.25;;;1.88;;
11042;SDS011;5574;48.786;10.120;2023-03-21T14:46:36;2.58;;;2.20;;
11042;SDS011;5574;48.786;10.120;2023-03-21T14:49:12;3.60;;;2.00;;
11042;SDS011;5574;48.786;10.120;2023-03-21T14:51:44;2.38;;;2.00;;
11042;SDS011;5574;48.786;10.120;2023-03-21T14:54:14;2.20;;;2.00;;
11042;SDS011;5574;48.786;10.120;2023-03-21T14:56:43;3.15;;;2.00;;
11042;SDS011;5574;48.786;10.120;2023-03-21T14:59:13;3.58;;;1.98;;
11042;SDS011;5574;48.786;10.120;2023-03-21T15:01:41;1.80;;;1.70;;
11042;SDS011;5574;48.786;10.120;2023-03-21T15:04:11;2.13;;;2.00;;
11042;SDS011;5574;48.786;10.120;2023-03-21T15:06:49;2.85;;;1.98;;
11042;SDS011;5574;48.786;10.120;2023-03-21T15:09:20;1.80;;;1.70;;
11042;SDS011;5574;48.786;10.120;2023-03-21T15:11:49;4.53;;;1.90;;
11042;SDS011;5574;48.786;10.120;2023-03-21T15:14:17;3.30;;;1.70;;
11042;SDS011;5574;48.786;10.120;2023-03-21T15:16:46;4.85;;;2.10;;